Thunder radar more information blitzortung!


Radar de pluja more information rain snow radar


Visita la nostra xarxa de llocs de meteo:

Template documentation
and downloads

And another site



No particular awareness of the weather is required.    There are no Weather-warnings

Pagina Historial Weather Underground text

Diari Resum Octubre 31, 2017 Unitats:  Mètric    Imperial   Tant
« Previous Dia
SegĂźent Dia »
Diari Setmana Mensual Anual Personalitzada
  Maxima: Minima: Media:
Temperatura: -17.8 °C -11.9 °C -9.7 °C
Punt de rosada: -17.8 °C -14.6 °C -13.4 °C
Humitat: Humidity % 53 % 64 %
Wind Speed: 0 km/h 0 km/h 5.6 km/h
RĂ fegues de vent: 0 km/h - -
Vent:- - South
Pression baro: 0 hPa 34533.8 hPa -
Precipitacions: 0 mm    
Historical Graphs
 
 
Dades de taula per Octubre 31, 2017
Temps Temperatura Punt de rosada Pression baro Vent Wind Speed RĂ fegues de vent Humitat Rainfall Rate (Hourly)
-17.8 °C -17.8 °C 0 hPa Calm     Humidity % 0 mm
00:02 -10.2 °C -12.4 °C 34533.8 hPa Calm     76 % 0 mm
00:05 -10.5 °C -13.2 °C 34601.5 hPa NNE 5.1 km/h 7.7 km/h 72 % 0 mm
00:07 -10.2 °C -12.4 °C 34533.8 hPa ESE 8 km/h 8 km/h 76 % 0 mm
00:15 -10.6 °C -13.2 °C 34601.5 hPa Calm   2.6 km/h 73 % 0 mm
00:25 -10.7 °C -13.3 °C 34567.7 hPa North 2.6 km/h 5.1 km/h 73 % 0 mm
00:35 -10.7 °C -13.4 °C 34567.7 hPa North 2.6 km/h 2.6 km/h 72 % 0 mm
00:45 -10.8 °C -13.6 °C 34601.5 hPa Calm   2.6 km/h 71 % 0 mm
00:55 -10.8 °C -13.7 °C 34601.5 hPa North 2.6 km/h 5.1 km/h 70 % 0 mm
01:05 -10.9 °C -13.9 °C 34601.5 hPa Calm   2.6 km/h 69 % 0 mm
01:15 -10.9 °C -13.9 °C 34601.5 hPa WNW 2.6 km/h 5.1 km/h 69 % 0 mm
01:25 -10.9 °C -14.1 °C 34567.7 hPa NW 2.6 km/h 5.1 km/h 68 % 0 mm
01:45 -11 °C -14.3 °C 34601.5 hPa WNW 2.6 km/h 7.7 km/h 67 % 0 mm
01:55 -11.1 °C -14.3 °C 34601.5 hPa Calm   2.6 km/h 67 % 0 mm
02:05 -11.2 °C -14.5 °C 34601.5 hPa Calm   7.7 km/h 67 % 0 mm
02:15 -11.2 °C -14.6 °C 34635.4 hPa Calm   5.1 km/h 66 % 0 mm
02:25 -11.1 °C -14.6 °C 34635.4 hPa West 2.6 km/h 2.6 km/h 66 % 0 mm
02:35 -11.1 °C -14.6 °C 34635.4 hPa Calm   2.6 km/h 66 % 0 mm
02:45 -11 °C -14.4 °C 34635.4 hPa Calm   2.6 km/h 66 % 0 mm
02:55 -11 °C -14.4 °C 34635.4 hPa West 2.6 km/h 2.6 km/h 66 % 0 mm
03:05 -10.9 °C -14.3 °C 34635.4 hPa Calm   5.1 km/h 66 % 0 mm
03:15 -10.9 °C -14.3 °C 34635.4 hPa West 2.6 km/h 5.1 km/h 66 % 0 mm
09:24 -10.9 °C -14.3 °C 34669.3 hPa NW 3.1 km/h 3.1 km/h 66 % 0 mm
09:25 -10.9 °C -14.3 °C 34669.3 hPa NW 3.1 km/h 3.1 km/h 66 % 0 mm
09:30 -10.8 °C -14.3 °C 34669.3 hPa WNW 3.1 km/h   66 % 0 mm
09:35 -10.8 °C -14.3 °C 34669.3 hPa SW 6 km/h 6 km/h 66 % 0 mm
09:40 -10.7 °C -14.2 °C 34669.3 hPa WSW 6.3 km/h 6.3 km/h 66 % 0 mm
09:45 -10.7 °C -14.2 °C 34669.3 hPa SW 3.7 km/h   65 % 0 mm
09:50 -10.6 °C -14.2 °C 34669.3 hPa SW 8 km/h 8 km/h 65 % 0 mm
09:55 -10.6 °C -14.1 °C 34669.3 hPa SW 6 km/h 6 km/h 65 % 0 mm
10:00 -10.5 °C -14.2 °C 34669.3 hPa SSW 3.1 km/h 3.1 km/h 64 % 0 mm
10:05 -10.4 °C -14.1 °C 34669.3 hPa SW 3.7 km/h   64 % 0 mm
10:10 -10.2 °C -13.9 °C 34669.3 hPa SE 4.2 km/h 4.2 km/h 64 % 0 mm
10:15 -10.1 °C -13.8 °C 34669.3 hPa South 7.6 km/h 7.6 km/h 64 % 0 mm
10:20 -10.1 °C -13.9 °C 34669.3 hPa SW 6 km/h 6 km/h 63 % 0 mm
10:25 -10 °C -13.7 °C 34669.3 hPa WSW 8 km/h 8 km/h 64 % 0 mm
10:30 -9.9 °C -13.7 °C 34669.3 hPa SW 5.1 km/h   63 % 0 mm
10:35 -9.8 °C -13.7 °C 34669.3 hPa SW 6.8 km/h 6.8 km/h 63 % 0 mm
10:40 -9.7 °C -13.6 °C 34669.3 hPa NNW 4.2 km/h 4.2 km/h 63 % 0 mm
10:45 -9.7 °C -13.7 °C 34669.3 hPa NNE 9 km/h 9 km/h 62 % 0 mm
10:50 -9.6 °C -13.6 °C 34669.3 hPa NNE 3.1 km/h   62 % 0 mm
10:55 -9.7 °C -13.7 °C 34669.3 hPa WNW 6 km/h 6.3 km/h 62 % 0 mm
11:00 -9.7 °C -13.7 °C 34669.3 hPa NE 6 km/h 6 km/h 62 % 0 mm
11:05 -9.8 °C -13.8 °C 34669.3 hPa ENE 9 km/h 9 km/h 62 % 0 mm
11:10 -9.7 °C -13.7 °C 34669.3 hPa NNW 9 km/h 9 km/h 62 % 0 mm
11:15 -9.8 °C -13.8 °C 34669.3 hPa NNE 9 km/h 9 km/h 62 % 0 mm
11:20 -9.8 °C -13.9 °C 34669.3 hPa NNE 15.3 km/h 15.3 km/h 61 % 0 mm
11:25 -9.9 °C -13.9 °C 34669.3 hPa NNE 10.3 km/h 10.3 km/h 62 % 0 mm
11:30 -9.8 °C -13.8 °C 34669.3 hPa NE 6 km/h 6 km/h 62 % 0 mm
11:35 -9.8 °C -13.8 °C 34669.3 hPa ENE 11.9 km/h 11.9 km/h 62 % 0 mm
11:40 -9.7 °C -13.7 °C 34635.4 hPa NE 6.3 km/h 6.3 km/h 62 % 0 mm
11:45 -9.4 °C -13.4 °C 34635.4 hPa NNE 9 km/h 9 km/h 62 % 0 mm
11:50 -9.3 °C -13.5 °C 34635.4 hPa NNE 9 km/h 9 km/h 61 % 0 mm
11:55 -9.3 °C -13.4 °C 34635.4 hPa ENE 3.1 km/h 3.1 km/h 61 % 0 mm
12:00 -9.3 °C -13.5 °C 34635.4 hPa ENE 6 km/h 6.3 km/h 61 % 0 mm
12:05 -9.4 °C -13.7 °C 34635.4 hPa ESE 6 km/h 6 km/h 60 % 0 mm
12:10 -9.3 °C -13.4 °C 34635.4 hPa ENE 6 km/h 6 km/h 61 % 0 mm
12:15 -9.3 °C -13.6 °C 34635.4 hPa NE 9 km/h 9 km/h 60 % 0 mm
12:20 -8.9 °C -13.1 °C 34635.4 hPa NNE 6 km/h 6 km/h 61 % 0 mm
12:25 -8.9 °C -13.2 °C 34635.4 hPa WNW 6 km/h 6 km/h 60 % 0 mm
12:30 -8.7 °C -13 °C 34635.4 hPa Calm     60 % 0 mm
12:35 -8.4 °C -12.9 °C 34635.4 hPa SSE 12.2 km/h 12.2 km/h 59 % 0 mm
12:40 -8.6 °C -13.1 °C 34635.4 hPa SW 3.1 km/h 3.1 km/h 59 % 0 mm
12:45 -8.6 °C -12.9 °C 34635.4 hPa WNW 6 km/h 6 km/h 60 % 0 mm
12:50 -8.5 °C -12.9 °C 34635.4 hPa East 6.8 km/h 6.8 km/h 59 % 0 mm
12:55 -8.5 °C -12.9 °C 34635.4 hPa NNW 6 km/h 6 km/h 59 % 0 mm
13:00 -8.6 °C -13.2 °C 34635.4 hPa East 6 km/h 6 km/h 58 % 0 mm
13:10 -8.4 °C -12.9 °C 34635.4 hPa SSE 6 km/h 6 km/h 59 % 0 mm
13:20 -8.1 °C -12.7 °C 34635.4 hPa SW 9 km/h 9 km/h 58 % 0 mm
13:25 -7.8 °C -12.4 °C 34601.5 hPa SW 9 km/h 9 km/h 58 % 0 mm
13:30 -7.7 °C -12.4 °C 34601.5 hPa SSW 11.9 km/h 11.9 km/h 57 % 0 mm
13:35 -7.8 °C -12.6 °C 34601.5 hPa SW 7.6 km/h 7.6 km/h 57 % 0 mm
13:40 -8.1 °C -12.8 °C 34601.5 hPa SW 9 km/h 9 km/h 57 % 0 mm
13:45 -8.1 °C -13.1 °C 34601.5 hPa ESE 9 km/h 9 km/h 56 % 0 mm
13:50 -7.9 °C -12.7 °C 34601.5 hPa WNW 15 km/h 15 km/h 57 % 0 mm
13:55 -7.9 °C -12.7 °C 34601.5 hPa SW 15 km/h 15 km/h 57 % 0 mm
14:00 -7.7 °C -12.6 °C 34601.5 hPa SSE 9 km/h 9 km/h 56 % 0 mm
14:05 -7.8 °C -12.7 °C 34601.5 hPa South 9 km/h 9 km/h 56 % 0 mm
14:10 -7.7 °C -12.6 °C 34601.5 hPa SW 15 km/h 15 km/h 56 % 0 mm
14:15 -7.6 °C -12.6 °C 34601.5 hPa WSW 15 km/h 15 km/h 56 % 0 mm
14:20 -7.6 °C -12.6 °C 34601.5 hPa SSE 11.9 km/h 11.9 km/h 56 % 0 mm
14:25 -7.5 °C -12.6 °C 34601.5 hPa SSE 15 km/h 15 km/h 55 % 0 mm
14:30 -7.4 °C -12.4 °C 34601.5 hPa South 6.8 km/h 6.8 km/h 56 % 0 mm
14:35 -7.2 °C -12.5 °C 34601.5 hPa SSW 6 km/h 6 km/h 54 % 0 mm
14:40 -7.1 °C -12.4 °C 34601.5 hPa SW 6 km/h 6 km/h 54 % 0 mm
14:45 -7 °C -12.3 °C 34601.5 hPa SW 12.2 km/h 12.2 km/h 54 % 0 mm
14:50 -6.9 °C -12.1 °C 34601.5 hPa SSW 15.3 km/h 15.3 km/h 55 % 0 mm
14:55 -7 °C -12.3 °C 34601.5 hPa SW 11.9 km/h 11.9 km/h 54 % 0 mm
15:00 -6.9 °C -12.2 °C 34601.5 hPa West 6 km/h 6 km/h 54 % 0 mm
15:05 -6.8 °C -12.2 °C 34601.5 hPa South 9 km/h 9 km/h 54 % 0 mm
15:10 -6.8 °C -12.2 °C 34601.5 hPa SW 17.9 km/h 17.9 km/h 54 % 0 mm
15:15 -7 °C -12.4 °C 34601.5 hPa South 6 km/h 6 km/h 53 % 0 mm
15:20 -6.9 °C -12.3 °C 34601.5 hPa SW 20.9 km/h 20.9 km/h 54 % 0 mm
15:25 -6.9 °C -12.3 °C 34601.5 hPa SW 9.8 km/h 9.8 km/h 54 % 0 mm
15:30 -7 °C -12.3 °C 34601.5 hPa SW 11.9 km/h 11.9 km/h 54 % 0 mm
15:35 -7 °C -12.4 °C 34601.5 hPa WSW 15 km/h 15 km/h 53 % 0 mm
15:40 -7 °C -12.3 °C 34601.5 hPa SW 11.9 km/h 11.9 km/h 54 % 0 mm
15:45 -6.9 °C -12.3 °C 34601.5 hPa West 15 km/h 15 km/h 54 % 0 mm
15:50 -7.1 °C -12.4 °C 34601.5 hPa SW 11.9 km/h 11.9 km/h 54 % 0 mm
15:55 -7.1 °C -12.4 °C 34601.5 hPa WSW 9 km/h 9 km/h 54 % 0 mm
16:00 -7.1 °C -12.2 °C 34601.5 hPa SSW 11.9 km/h 11.9 km/h 55 % 0 mm
16:05 -7.2 °C -12.3 °C 34601.5 hPa SSW 11.9 km/h 11.9 km/h 55 % 0 mm
16:10 -7.3 °C -12.3 °C 34601.5 hPa WSW 11.9 km/h 11.9 km/h 56 % 0 mm
16:15 -7.4 °C -12.4 °C 34601.5 hPa SSW 15 km/h 15 km/h 56 % 0 mm
16:20 -7.6 °C -12.6 °C 34601.5 hPa SW 20.9 km/h 20.9 km/h 56 % 0 mm
16:25 -7.7 °C -12.6 °C 34601.5 hPa SSW 11.9 km/h 11.9 km/h 56 % 0 mm
16:30 -7.7 °C -12.6 °C 34601.5 hPa WSW 11.9 km/h 11.9 km/h 56 % 0 mm
16:35 -7.7 °C -12.7 °C 34601.5 hPa SW 11.9 km/h 11.9 km/h 56 % 0 mm
16:40 -7.8 °C -12.7 °C 34601.5 hPa SW 15 km/h 15 km/h 56 % 0 mm
16:45 -7.8 °C -12.6 °C 34601.5 hPa SSW 14 km/h 14 km/h 57 % 0 mm
16:50 -8 °C -12.8 °C 34601.5 hPa SW 15.3 km/h 15.3 km/h 57 % 0 mm
16:55 -8.1 °C -12.8 °C 34567.7 hPa SW 15 km/h 15 km/h 57 % 0 mm
17:00 -8.1 °C -12.9 °C 34567.7 hPa WSW 17.9 km/h 17.9 km/h 57 % 0 mm
17:05 -8.2 °C -12.9 °C 34567.7 hPa SSW 15 km/h 15 km/h 57 % 0 mm
17:10 -8.3 °C -12.9 °C 34567.7 hPa SW 11.9 km/h 11.9 km/h 58 % 0 mm
17:15 -8.4 °C -12.9 °C 34567.7 hPa WSW 15 km/h 15 km/h 59 % 0 mm
17:20 -8.5 °C -12.9 °C 34567.7 hPa WSW 9 km/h 9 km/h 59 % 0 mm
17:25 -8.6 °C -12.9 °C 34601.5 hPa West 9 km/h 9 km/h 60 % 0 mm
17:30 -8.7 °C -13.1 °C 34601.5 hPa SW 9 km/h 9 km/h 60 % 0 mm
17:35 -8.8 °C -13.2 °C 34601.5 hPa SW 9 km/h 9 km/h 60 % 0 mm
17:40 -8.9 °C -13.1 °C 34601.5 hPa SW 6 km/h 6 km/h 61 % 0 mm
17:45 -9 °C -13.2 °C 34601.5 hPa WSW 9 km/h 9 km/h 61 % 0 mm
17:50 -9.1 °C -13.3 °C 34601.5 hPa SW 6 km/h 6 km/h 61 % 0 mm
17:55 -9.2 °C -13.3 °C 34601.5 hPa WSW 9 km/h 9 km/h 61 % 0 mm
18:00 -9.2 °C -13.2 °C 34601.5 hPa WSW 6 km/h 6 km/h 62 % 0 mm
18:05 -9.3 °C -13.3 °C 34601.5 hPa Calm     62 % 0 mm
18:10 -9.4 °C -13.3 °C 34601.5 hPa Calm     63 % 0 mm
18:15 -9.4 °C -13.3 °C 34601.5 hPa SE 3.1 km/h   63 % 0 mm
18:16 -9.4 °C -13.3 °C 34601.5 hPa SE 3.1 km/h   63 % 0 mm
18:21 -9.5 °C -13.4 °C 34601.5 hPa Calm     63 % 0 mm
18:26 -9.6 °C -13.3 °C 34635.4 hPa Calm     64 % 0 mm
18:31 -9.6 °C -13.3 °C 34635.4 hPa Calm     64 % 0 mm
18:36 -9.6 °C -13.4 °C 34635.4 hPa Calm     64 % 0 mm
18:41 -9.7 °C -13.4 °C 34635.4 hPa Calm     64 % 0 mm
18:46 -9.7 °C -13.4 °C 34635.4 hPa Calm     64 % 0 mm
18:51 -9.7 °C -13.3 °C 34635.4 hPa ESE 3.1 km/h 3.1 km/h 65 % 0 mm
18:56 -9.7 °C -13.3 °C 34635.4 hPa Calm     65 % 0 mm
19:01 -9.8 °C -13.4 °C 34635.4 hPa Calm     65 % 0 mm
19:06 -9.8 °C -13.3 °C 34635.4 hPa Calm     66 % 0 mm
19:11 -9.9 °C -13.4 °C 34635.4 hPa Calm     66 % 0 mm
19:16 -9.9 °C -13.4 °C 34635.4 hPa NE 3.1 km/h 3.1 km/h 66 % 0 mm
19:21 -9.9 °C -13.4 °C 34635.4 hPa Calm     66 % 0 mm
19:26 -9.9 °C -13.4 °C 34635.4 hPa NE 3.1 km/h 3.1 km/h 66 % 0 mm
19:31 -10 °C -13.5 °C 34635.4 hPa Calm     66 % 0 mm
19:36 -9.9 °C -13.4 °C 34635.4 hPa WNW 3.1 km/h   66 % 0 mm
19:41 -10 °C -13.4 °C 34635.4 hPa Calm     67 % 0 mm
19:46 -10 °C -13.4 °C 34635.4 hPa WNW 3.1 km/h   67 % 0 mm
19:51 -10.1 °C -13.4 °C 34635.4 hPa Calm     67 % 0 mm
19:56 -10.1 °C -13.3 °C 34635.4 hPa Calm     68 % 0 mm
20:01 -10.2 °C -13.4 °C 34635.4 hPa NNE 3.7 km/h 3.7 km/h 68 % 0 mm
20:06 -10.3 °C -13.6 °C 34635.4 hPa NNE 3.1 km/h 3.1 km/h 68 % 0 mm
20:11 -10.3 °C -13.4 °C 34635.4 hPa NNE 3.7 km/h 3.7 km/h 69 % 0 mm
20:16 -10.4 °C -13.5 °C 34635.4 hPa Calm     69 % 0 mm
20:21 -10.4 °C -13.6 °C 34635.4 hPa Calm     69 % 0 mm
20:26 -10.5 °C -13.6 °C 34669.3 hPa Calm     69 % 0 mm
20:31 -10.5 °C -13.6 °C 34669.3 hPa Calm     69 % 0 mm
20:36 -10.6 °C -13.5 °C 34669.3 hPa NNE 3.1 km/h   70 % 0 mm
20:37 -10.6 °C -13.5 °C 34669.3 hPa NNE 3.1 km/h   70 % 0 mm
20:42 -10.6 °C -13.6 °C 34669.3 hPa Calm     70 % 0 mm
20:47 -10.7 °C -13.7 °C 34669.3 hPa Calm     70 % 0 mm
20:52 -10.7 °C -13.7 °C 34669.3 hPa Calm     70 % 0 mm
20:57 -10.8 °C -13.8 °C 34669.3 hPa Calm     70 % 0 mm
21:02 -10.9 °C -13.9 °C 34669.3 hPa West 6 km/h 6 km/h 70 % 0 mm
21:07 -11 °C -13.8 °C 34669.3 hPa West 4.2 km/h 4.2 km/h 71 % 0 mm
21:12 -11 °C -13.8 °C 34669.3 hPa West 5.1 km/h 5.1 km/h 71 % 0 mm
21:17 -11 °C -13.8 °C 34669.3 hPa West 3.7 km/h 3.7 km/h 71 % 0 mm
21:22 -10.9 °C -13.7 °C 34669.3 hPa Calm     72 % 0 mm
21:27 -10.9 °C -13.7 °C 34669.3 hPa West 3.7 km/h   72 % 0 mm
21:32 -10.9 °C -13.7 °C 34669.3 hPa West 3.7 km/h 3.7 km/h 72 % 0 mm
21:37 -11 °C -13.6 °C 34669.3 hPa West 3.1 km/h   73 % 0 mm
21:42 -11.1 °C -13.7 °C 34669.3 hPa West 3.1 km/h   73 % 0 mm
21:47 -11.1 °C -13.7 °C 34669.3 hPa West 3.1 km/h 3.1 km/h 73 % 0 mm
21:52 -11.1 °C -13.7 °C 34703.1 hPa Calm     73 % 0 mm
21:57 -11.1 °C -13.7 °C 34703.1 hPa Calm     73 % 0 mm
22:02 -11.1 °C -13.6 °C 34703.1 hPa Calm     74 % 0 mm
22:07 -11.2 °C -13.7 °C 34669.3 hPa Calm     74 % 0 mm
22:12 -11.2 °C -13.7 °C 34669.3 hPa Calm     74 % 0 mm
22:17 -11.2 °C -13.6 °C 34669.3 hPa Calm     75 % 0 mm
22:22 -11.2 °C -13.7 °C 34669.3 hPa Calm     74 % 0 mm
22:27 -11.2 °C -13.6 °C 34669.3 hPa Calm     75 % 0 mm
22:32 -11.2 °C -13.6 °C 34669.3 hPa Calm     75 % 0 mm
22:37 -11.3 °C -13.7 °C 34669.3 hPa Calm     75 % 0 mm
22:42 -11.3 °C -13.7 °C 34669.3 hPa Calm     75 % 0 mm
22:47 -11.3 °C -13.7 °C 34669.3 hPa Calm     75 % 0 mm
22:52 -11.3 °C -13.7 °C 34669.3 hPa Calm     75 % 0 mm
22:57 -11.4 °C -13.8 °C 34669.3 hPa WNW 3.1 km/h   75 % 0 mm
23:02 -11.4 °C -13.8 °C 34669.3 hPa Calm     75 % 0 mm
23:07 -11.5 °C -13.9 °C 34669.3 hPa WSW 4.2 km/h 4.2 km/h 75 % 0 mm
23:12 -11.6 °C -13.9 °C 34669.3 hPa Calm     75 % 0 mm
23:17 -11.6 °C -13.8 °C 34669.3 hPa ENE 5.1 km/h 5.1 km/h 76 % 0 mm
23:22 -11.6 °C -13.9 °C 34669.3 hPa ENE 4.2 km/h 4.2 km/h 76 % 0 mm
23:27 -11.7 °C -13.9 °C 34669.3 hPa ENE 4.2 km/h 4.2 km/h 76 % 0 mm
23:32 -11.7 °C -13.9 °C 34669.3 hPa ENE 6 km/h 6 km/h 76 % 0 mm
23:33 -11.7 °C -14 °C 34669.3 hPa ENE 6 km/h 6 km/h 76 % 0 mm
23:38 -11.8 °C -13.9 °C 34669.3 hPa NE 6 km/h 6 km/h 77 % 0 mm
23:43 -11.8 °C -13.9 °C 34669.3 hPa Calm     77 % 0 mm
23:48 -11.8 °C -14 °C 34669.3 hPa Calm     77 % 0 mm
23:53 -11.9 °C -14.1 °C 34669.3 hPa WSW 3.1 km/h 3.1 km/h 77 % 0 mm
23:58 -11.9 °C -14.1 °C 34669.3 hPa Calm     77 % 0 mm
Meteo Sesrovires
Elogis d' Weather Underground - 2 mb

Guio original per  Jim McMurry - jmcmurry@mwt.net Adaptat per a la plantilla per  Wim van der Kuil - Leuven-Template.eu

Trobareu la nostra informacio del temps tambe a:

Weather Underground

AWEKAS